sensor_id;sensor_type;location;lat;lon;timestamp;P1;durP1;ratioP1;P2;durP2;ratioP2
30613;SDS011;17381;51.690;5.270;2023-02-08T10:08:11;16.05;;;10.23;;
30613;SDS011;17381;51.690;5.270;2023-02-08T10:42:39;11.85;;;7.53;;
30613;SDS011;17381;51.690;5.270;2023-02-08T11:11:59;12.40;;;7.53;;
30613;SDS011;17381;51.690;5.270;2023-02-08T11:15:08;10.05;;;6.38;;
30613;SDS011;17381;51.690;5.270;2023-02-08T11:27:28;10.17;;;6.33;;
30613;SDS011;17381;51.690;5.270;2023-02-08T19:15:03;9.82;;;4.38;;
30613;SDS011;17381;51.690;5.270;2023-02-08T19:18:29;10.90;;;5.13;;
30613;SDS011;17381;51.690;5.270;2023-02-08T19:21:47;9.98;;;4.22;;
30613;SDS011;17381;51.690;5.270;2023-02-08T19:28:46;8.40;;;4.43;;
30613;SDS011;17381;51.690;5.270;2023-02-08T19:31:49;9.55;;;4.55;;
30613;SDS011;17381;51.690;5.270;2023-02-08T20:39:06;10.15;;;5.20;;
30613;SDS011;17381;51.690;5.270;2023-02-08T20:42:30;9.00;;;4.60;;
30613;SDS011;17381;51.690;5.270;2023-02-08T21:15:28;9.05;;;4.60;;
30613;SDS011;17381;51.690;5.270;2023-02-08T22:16:23;8.88;;;4.65;;
30613;SDS011;17381;51.690;5.270;2023-02-08T22:18:50;9.10;;;4.75;;
30613;SDS011;17381;51.690;5.270;2023-02-08T22:21:26;9.85;;;4.85;;
30613;SDS011;17381;51.690;5.270;2023-02-08T22:24:30;16.55;;;5.63;;
30613;SDS011;17381;51.690;5.270;2023-02-08T22:27:05;10.02;;;4.93;;
30613;SDS011;17381;51.690;5.270;2023-02-08T22:29:33;10.75;;;5.07;;
30613;SDS011;17381;51.690;5.270;2023-02-08T22:32:03;8.80;;;4.53;;
30613;SDS011;17381;51.690;5.270;2023-02-08T22:34:32;8.52;;;5.13;;
30613;SDS011;17381;51.690;5.270;2023-02-08T22:37:02;11.10;;;5.13;;
30613;SDS011;17381;51.690;5.270;2023-02-08T22:39:31;11.18;;;5.68;;
30613;SDS011;17381;51.690;5.270;2023-02-08T22:42:00;9.82;;;4.70;;
30613;SDS011;17381;51.690;5.270;2023-02-08T22:44:52;9.95;;;5.05;;
30613;SDS011;17381;51.690;5.270;2023-02-08T22:47:18;11.57;;;5.57;;
30613;SDS011;17381;51.690;5.270;2023-02-08T22:49:50;9.63;;;4.65;;
30613;SDS011;17381;51.690;5.270;2023-02-08T22:52:16;13.10;;;5.65;;
30613;SDS011;17381;51.690;5.270;2023-02-08T22:54:43;9.65;;;5.28;;
30613;SDS011;17381;51.690;5.270;2023-02-08T22:57:10;10.18;;;4.70;;
30613;SDS011;17381;51.690;5.270;2023-02-08T22:59:37;10.00;;;4.90;;
30613;SDS011;17381;51.690;5.270;2023-02-08T23:02:07;9.02;;;4.97;;
30613;SDS011;17381;51.690;5.270;2023-02-08T23:04:34;11.85;;;5.50;;
30613;SDS011;17381;51.690;5.270;2023-02-08T23:07:06;10.13;;;5.47;;
30613;SDS011;17381;51.690;5.270;2023-02-08T23:09:39;13.38;;;5.88;;
30613;SDS011;17381;51.690;5.270;2023-02-08T23:12:06;11.80;;;5.25;;
30613;SDS011;17381;51.690;5.270;2023-02-08T23:14:40;11.07;;;5.35;;
30613;SDS011;17381;51.690;5.270;2023-02-08T23:17:09;10.23;;;5.28;;
30613;SDS011;17381;51.690;5.270;2023-02-08T23:19:39;10.32;;;5.30;;
30613;SDS011;17381;51.690;5.270;2023-02-08T23:22:06;9.63;;;5.15;;
30613;SDS011;17381;51.690;5.270;2023-02-08T23:24:38;12.18;;;5.30;;
30613;SDS011;17381;51.690;5.270;2023-02-08T23:27:06;12.77;;;5.75;;
30613;SDS011;17381;51.690;5.270;2023-02-08T23:29:42;9.60;;;5.50;;
30613;SDS011;17381;51.690;5.270;2023-02-08T23:32:10;11.70;;;5.53;;
30613;SDS011;17381;51.690;5.270;2023-02-08T23:34:45;12.95;;;6.22;;
30613;SDS011;17381;51.690;5.270;2023-02-08T23:37:20;10.30;;;5.43;;
30613;SDS011;17381;51.690;5.270;2023-02-08T23:39:55;10.88;;;5.57;;
30613;SDS011;17381;51.690;5.270;2023-02-08T23:42:22;9.57;;;5.28;;
30613;SDS011;17381;51.690;5.270;2023-02-08T23:44:56;10.57;;;5.75;;
30613;SDS011;17381;51.690;5.270;2023-02-08T23:47:36;9.75;;;5.45;;
30613;SDS011;17381;51.690;5.270;2023-02-08T23:50:07;10.25;;;5.00;;
30613;SDS011;17381;51.690;5.270;2023-02-08T23:52:36;12.52;;;5.53;;
30613;SDS011;17381;51.690;5.270;2023-02-08T23:55:10;13.43;;;6.43;;
